Time;durP1;ratioP1;P1;durP2;ratioP2;P2;SDS_P1;SDS_P2;PMS_P1;PMS_P2;Temp;Humidity;BMP_temperature;BMP_pressure;BME280_temperature;BME280_humidity;BME280_pressure;Samples;Min_cycle;Max_cycle;Signal;HPM_P1;HPM_P2
2021/11/10 00:01:20;;;;;;;14.52;10.05;;;;;;;2.38;89.92;101870.97;5007489;28;20484;-78
2021/11/10 00:03:45;;;;;;;18.73;11.45;;;;;;;2.35;89.87;101869.94;5006663;28;20063;-79
2021/11/10 00:06:10;;;;;;;15.32;10.65;;;;;;;2.32;90.11;101869.78;5007434;28;20042;-78
2021/11/10 00:08:35;;;;;;;14.68;9.80;;;;;;;2.29;90.00;101869.63;5005871;28;20030;-78
2021/11/10 00:11:01;;;;;;;13.05;9.52;;;;;;;2.27;89.83;101863.44;4989869;28;20065;-79
2021/11/10 00:13:27;;;;;;;12.57;8.93;;;;;;;2.24;89.66;101863.31;4997441;28;20050;-79
2021/11/10 00:15:53;;;;;;;13.25;8.93;;;;;;;2.24;89.50;101852.88;5007250;28;20068;-79
2021/11/10 00:18:19;;;;;;;19.15;12.30;;;;;;;2.22;89.47;101846.69;5006537;28;20034;-79
2021/11/10 00:20:45;;;;;;;16.80;11.57;;;;;;;2.20;89.96;101846.63;4973662;28;20127;-79
2021/11/10 00:23:12;;;;;;;17.30;11.25;;;;;;;2.19;89.82;101848.34;4989673;28;20508;-79
2021/11/10 00:25:37;;;;;;;22.98;15.13;;;;;;;2.17;89.59;101847.38;5006660;28;20140;-79
2021/11/10 00:28:05;;;;;;;18.65;11.50;;;;;;;2.15;89.97;101849.00;5006270;28;20468;-79
2021/11/10 00:30:31;;;;;;;18.00;11.82;;;;;;;2.09;90.06;101838.28;5007374;28;20088;-79
2021/11/10 00:32:56;;;;;;;18.40;13.05;;;;;;;2.04;89.45;101847.56;4989121;28;20159;-79
2021/11/10 00:35:22;;;;;;;17.98;10.38;;;;;;;1.98;89.76;101847.28;4990073;28;20198;-79
2021/11/10 00:37:48;;;;;;;17.63;10.63;;;;;;;1.93;89.73;101856.56;5005998;28;20033;-78
2021/11/10 00:40:16;;;;;;;16.35;10.93;;;;;;;1.90;90.24;101861.63;5004184;28;20050;-79
2021/11/10 00:42:42;;;;;;;17.00;11.15;;;;;;;1.85;90.06;101852.69;5005764;28;20128;-79
2021/11/10 00:45:08;;;;;;;15.20;10.43;;;;;;;1.77;90.00;101841.00;5005440;28;20261;-79
2021/11/10 00:47:34;;;;;;;14.15;9.15;;;;;;;1.75;89.77;101841.81;4989417;28;20038;-79
2021/11/10 00:49:59;;;;;;;13.88;9.45;;;;;;;1.75;90.08;101841.81;5005929;28;20034;-79
2021/11/10 00:52:25;;;;;;;15.43;10.13;;;;;;;1.77;89.74;101841.00;5006019;28;20110;-78
2021/11/10 00:54:51;;;;;;;13.68;9.50;;;;;;;1.80;90.07;101834.22;4991125;28;20069;-78
2021/11/10 00:57:16;;;;;;;17.77;11.40;;;;;;;1.79;90.39;101827.25;4994635;28;20034;-78
2021/11/10 00:59:42;;;;;;;19.35;13.07;;;;;;;1.78;90.12;101816.75;4988743;28;20086;-78
2021/11/10 01:02:08;;;;;;;18.40;11.05;;;;;;;1.74;89.99;101829.63;4972009;28;20042;-77
2021/11/10 01:04:33;;;;;;;16.13;10.70;;;;;;;1.77;90.32;101830.59;4988071;28;20034;-78
2021/11/10 01:06:59;;;;;;;16.80;11.15;;;;;;;1.78;90.45;101829.75;4987963;28;20563;-78
2021/11/10 01:09:24;;;;;;;20.67;13.18;;;;;;;1.79;90.23;101828.97;5005650;28;20077;-79
2021/11/10 01:11:50;;;;;;;15.23;11.10;;;;;;;1.79;90.20;101813.34;5005444;28;20034;-78
2021/11/10 01:14:17;;;;;;;16.70;11.95;;;;;;;1.79;90.53;101813.34;5005385;28;20097;-78
2021/11/10 01:16:45;;;;;;;17.75;11.90;;;;;;;1.78;90.11;101811.53;4972665;28;20057;-79
2021/11/10 01:19:12;;;;;;;16.92;11.57;;;;;;;1.75;90.00;101805.34;4988501;28;20061;-79
2021/11/10 01:21:37;;;;;;;18.13;12.77;;;;;;;1.74;90.31;101803.59;4990440;28;20037;-78
2021/11/10 01:24:03;;;;;;;17.48;10.73;;;;;;;1.73;90.02;101812.22;5008629;28;20086;-78
2021/11/10 01:26:28;;;;;;;20.63;14.30;;;;;;;1.74;90.15;101808.78;4992330;28;20092;-79
2021/11/10 01:28:54;;;;;;;13.82;9.93;;;;;;;1.74;90.62;101810.50;4991888;28;20038;-79
2021/11/10 01:31:20;;;;;;;16.95;11.30;;;;;;;1.68;90.55;101813.69;4991733;28;20105;-79
2021/11/10 01:33:46;;;;;;;15.70;10.80;;;;;;;1.66;90.18;101809.22;4990988;28;20121;-79
2021/11/10 01:36:12;;;;;;;22.40;11.70;;;;;;;1.63;90.81;101812.56;5008785;28;20037;-78
2021/11/10 01:38:38;;;;;;;19.60;12.05;;;;;;;1.54;90.40;101819.91;4991906;28;20103;-79
2021/11/10 01:41:04;;;;;;;18.17;11.07;;;;;;;1.49;89.44;101821.38;4990779;28;20057;-78
2021/11/10 01:43:34;;;;;;;17.50;10.23;;;;;;;1.46;89.88;101816.91;4990485;28;20081;-78
2021/11/10 01:45:59;;;;;;;18.55;11.63;;;;;;;1.44;90.31;101812.44;5008472;28;20046;-78
2021/11/10 01:48:28;;;;;;;13.50;9.98;;;;;;;1.39;89.68;101803.50;4989816;28;20060;-78
2021/11/10 01:50:55;;;;;;;16.85;11.52;;;;;;;1.37;89.50;101805.16;4991156;28;20034;-79
2021/11/10 01:53:20;;;;;;;16.63;11.35;;;;;;;1.31;89.86;101798.81;5008247;28;20084;-78
2021/11/10 01:55:47;;;;;;;18.60;12.52;;;;;;;1.29;90.35;101792.63;4993364;28;20113;-79
2021/11/10 01:58:13;;;;;;;16.38;10.30;;;;;;;1.29;90.57;101797.84;4996303;28;20038;-78
2021/11/10 02:00:43;;;;;;;17.73;11.90;;;;;;;1.28;90.30;101798.66;4995879;28;20041;-78
2021/11/10 02:03:12;;;;;;;19.48;12.63;;;;;;;1.23;90.06;101786.22;4993191;28;20022;-78
2021/11/10 02:05:57;;;;;;;19.27;11.95;;;;;;;1.16;90.20;101779.81;5010064;28;20154;-78
2021/11/10 02:08:41;;;;;;;15.57;9.93;;;;;;;1.12;90.24;101779.56;4994217;28;20045;-78
2021/11/10 02:11:14;;;;;;;19.98;13.20;;;;;;;1.05;89.99;101776.66;4996074;28;20045;-78
2021/11/10 02:13:47;;;;;;;;;;;;;;;1.02;90.78;101775.59;5012652;28;20219;-79
2021/11/10 02:16:13;;;;;;;20.50;12.45;;;;;;;1.06;90.56;101770.63;4992426;28;19982;-79
2021/11/10 02:18:39;;;;;;;17.05;11.32;;;;;;;1.09;90.50;101772.50;4990985;28;20031;-79
2021/11/10 02:21:09;;;;;;;18.15;11.45;;;;;;;1.08;90.17;101757.72;4996492;28;20118;-78
2021/11/10 02:23:35;;;;;;;19.40;12.07;;;;;;;1.06;90.43;101764.56;4992364;28;20026;-78
2021/11/10 02:26:02;;;;;;;15.60;10.93;;;;;;;1.02;90.30;101767.78;4992837;28;20048;-78
2021/11/10 02:28:28;;;;;;;16.27;10.60;;;;;;;0.99;90.04;101767.63;4991883;28;20042;-78
2021/11/10 02:30:54;;;;;;;15.18;10.00;;;;;;;0.96;89.84;101762.28;4992408;28;20077;-78
2021/11/10 02:33:29;;;;;;;16.08;10.45;;;;;;;0.95;89.61;101751.00;4990490;28;20031;-79
2021/11/10 02:36:04;;;;;;;14.75;9.85;;;;;;;0.92;89.67;101742.13;4991678;28;20034;-78
2021/11/10 02:38:31;;;;;;;12.38;8.95;;;;;;;0.91;89.89;101735.16;4992169;28;20046;-79
2021/11/10 02:40:58;;;;;;;12.57;9.63;;;;;;;0.93;89.76;101733.53;4991766;28;20042;-79
2021/11/10 02:43:24;;;;;;;14.95;10.85;;;;;;;0.96;90.32;101723.28;5009800;28;20022;-78
2021/11/10 02:45:50;;;;;;;16.95;10.95;;;;;;;0.99;90.34;101723.44;5000251;28;20050;-79
2021/11/10 02:48:16;;;;;;;15.43;10.05;;;;;;;1.00;90.09;101725.25;4991817;28;20042;-78
2021/11/10 02:50:42;;;;;;;18.15;11.73;;;;;;;0.99;90.58;101732.13;4992153;28;20073;-79
2021/11/10 02:53:07;;;;;;;15.82;10.68;;;;;;;0.98;90.00;101726.88;4991689;28;20065;-79
2021/11/10 02:55:33;;;;;;;16.60;11.20;;;;;;;0.99;90.10;101726.03;5009578;28;20034;-78
2021/11/10 02:57:59;;;;;;;17.10;11.40;;;;;;;0.98;90.32;101721.66;4991494;28;20080;-79
2021/11/10 03:00:27;;;;;;;15.38;9.77;;;;;;;0.99;89.97;101711.31;4991843;28;20034;-79
2021/11/10 03:02:54;;;;;;;16.02;10.13;;;;;;;0.98;89.83;101706.06;5008397;28;20042;-78
2021/11/10 03:05:22;;;;;;;17.60;10.63;;;;;;;0.96;90.32;101712.88;4991023;28;20030;-79
2021/11/10 03:07:49;;;;;;;15.30;10.63;;;;;;;0.91;89.65;101703.97;4990936;28;20038;-79
2021/11/10 03:10:15;;;;;;;19.50;11.73;;;;;;;0.74;90.07;101701.38;4991814;28;20106;-79
2021/11/10 03:12:42;;;;;;;23.77;15.25;;;;;;;0.69;91.21;101702.84;4988601;28;20065;-79
2021/11/10 03:15:09;;;;;;;20.77;13.40;;;;;;;0.73;91.52;101715.16;4987723;28;20152;-78
2021/11/10 03:17:35;;;;;;;20.02;12.30;;;;;;;0.70;91.36;101706.34;4988035;28;20428;-79
2021/11/10 03:20:04;;;;;;;19.35;12.00;;;;;;;0.67;91.61;101708.78;4986981;28;20571;-79
2021/11/10 03:22:33;;;;;;;15.23;10.60;;;;;;;0.66;91.06;101710.50;4986840;28;20022;-78
2021/11/10 03:25:00;;;;;;;22.27;13.52;;;;;;;0.65;90.80;101707.00;5004261;28;20046;-79
2021/11/10 03:27:26;;;;;;;14.40;9.90;;;;;;;0.64;90.92;101699.13;4987610;28;20026;-78
2021/11/10 03:29:54;;;;;;;15.18;9.48;;;;;;;0.64;91.02;101693.91;4987137;28;20030;-79
2021/11/10 03:32:23;;;;;;;16.13;10.93;;;;;;;0.62;91.17;101691.22;4987362;28;20495;-79
2021/11/10 03:34:51;;;;;;;23.05;13.18;;;;;;;0.59;90.92;101691.06;4986539;28;20141;-79
2021/11/10 03:37:20;;;;;;;21.27;13.48;;;;;;;0.58;91.40;101688.41;4985929;28;20043;-79
2021/11/10 03:39:45;;;;;;;18.00;11.55;;;;;;;0.55;91.38;101680.44;4986251;28;20036;-80
2021/11/10 03:42:11;;;;;;;19.77;12.70;;;;;;;0.54;91.74;101687.34;4984601;28;20519;-79
2021/11/10 03:44:37;;;;;;;18.33;11.27;;;;;;;0.57;92.22;101689.19;4985664;28;20061;-79
2021/11/10 03:47:04;;;;;;;16.73;11.20;;;;;;;0.61;91.52;101692.06;4985591;28;20034;-79
2021/11/10 03:49:30;;;;;;;19.58;13.02;;;;;;;0.66;91.23;101697.50;4986157;28;20030;-79
2021/11/10 03:51:56;;;;;;;17.87;11.77;;;;;;;0.71;91.71;101695.13;4985288;28;20077;-79
2021/11/10 03:54:24;;;;;;;19.42;12.13;;;;;;;0.72;91.15;101700.41;4984331;28;20085;-80
2021/11/10 03:56:49;;;;;;;19.20;12.17;;;;;;;0.73;90.79;101699.59;5002677;28;20034;-79
2021/11/10 03:59:15;;;;;;;18.63;11.73;;;;;;;0.75;90.60;101697.06;4985138;28;20102;-80
2021/11/10 04:01:43;;;;;;;20.13;12.10;;;;;;;0.73;91.12;101699.59;4984922;28;20053;-79
2021/11/10 04:04:09;;;;;;;21.08;12.00;;;;;;;0.60;90.34;101698.06;4982780;28;20030;-79
2021/11/10 04:06:35;;;;;;;17.73;10.87;;;;;;;0.55;90.90;101709.00;4984561;28;20030;-79
2021/11/10 04:09:04;;;;;;;17.83;11.33;;;;;;;0.52;90.88;101708.84;4979977;28;20033;-79
2021/11/10 04:11:29;;;;;;;20.13;11.93;;;;;;;0.54;90.92;101712.44;4983114;28;20041;-79
2021/11/10 04:13:54;;;;;;;20.07;12.70;;;;;;;0.56;90.56;101703.00;4999053;28;20030;-79
2021/11/10 04:16:22;;;;;;;22.37;12.73;;;;;;;0.51;90.56;101699.28;4981310;28;20100;-79
2021/11/10 04:18:54;;;;;;;18.70;11.57;;;;;;;0.52;90.98;101706.25;4983874;28;20471;-78
2021/11/10 04:21:23;;;;;;;22.83;13.70;;;;;;;0.60;91.29;101712.75;4980119;28;20117;-78
2021/11/10 04:23:53;;;;;;;21.83;12.87;;;;;;;0.71;92.05;101700.31;4994621;28;20029;-79
2021/11/10 04:26:23;;;;;;;22.73;13.77;;;;;;;0.72;91.74;101697.81;4971680;28;20057;-79
2021/11/10 04:28:48;;;;;;;22.77;13.90;;;;;;;0.71;91.35;101696.03;4988907;28;20090;-79
2021/11/10 04:31:14;;;;;;;23.60;13.17;;;;;;;0.68;91.32;101685.47;4986755;28;20038;-79
2021/11/10 04:33:42;;;;;;;21.53;11.37;;;;;;;0.67;91.22;101683.69;4987033;28;20066;-79
2021/11/10 04:36:08;;;;;;;19.50;12.47;;;;;;;0.64;90.84;101688.72;4987451;28;20038;-79
2021/11/10 04:38:35;;;;;;;21.93;13.63;;;;;;;0.60;90.76;101687.69;4988120;28;20042;-79
2021/11/10 04:41:02;;;;;;;20.17;13.07;;;;;;;0.60;90.55;101689.34;4987404;28;20030;-79
2021/11/10 04:43:27;;;;;;;23.27;13.60;;;;;;;0.61;90.43;101683.38;4984892;28;20100;-79
2021/11/10 04:46:05;;;;;;;20.70;12.87;;;;;;;0.61;90.51;101683.38;4983816;28;20117;-78
2021/11/10 04:48:30;;;;;;;17.63;11.73;;;;;;;0.58;90.58;101681.50;4985039;28;20030;-79
2021/11/10 04:50:56;;;;;;;21.13;12.47;;;;;;;0.58;90.46;101672.81;5002922;28;20544;-79
2021/11/10 04:53:21;;;;;;;18.40;10.87;;;;;;;0.56;90.47;101672.72;4984787;28;20546;-80
2021/11/10 04:55:47;;;;;;;18.37;11.67;;;;;;;0.53;90.73;101671.69;5002496;28;20034;-79
2021/11/10 04:58:12;;;;;;;18.43;10.97;;;;;;;0.52;90.42;101678.56;4987652;28;20094;-79
2021/11/10 05:00:39;;;;;;;17.43;11.10;;;;;;;0.52;90.50;101677.69;4988259;28;20415;-79
2021/11/10 05:03:05;;;;;;;18.10;11.33;;;;;;;0.52;90.82;101672.47;4983171;28;20029;-79
2021/11/10 05:05:30;;;;;;;19.53;12.13;;;;;;;0.53;90.92;101682.09;4985469;28;20058;-79
2021/11/10 05:07:56;;;;;;;18.63;11.90;;;;;;;0.55;91.06;101677.84;4986084;28;20081;-79
2021/11/10 05:10:22;;;;;;;20.53;12.13;;;;;;;0.55;90.72;101677.84;4986422;28;20038;-79
2021/11/10 05:12:55;;;;;;;18.90;12.43;;;;;;;0.57;91.06;101677.09;4987593;28;20026;-78
2021/11/10 05:15:22;;;;;;;22.17;14.20;;;;;;;0.57;91.05;101674.50;4987033;28;20456;-79
2021/11/10 05:17:48;;;;;;;18.23;11.95;;;;;;;0.62;91.21;101672.16;4979645;28;20092;-78
2021/11/10 05:20:18;;;;;;;20.03;12.80;;;;;;;0.59;90.44;101674.59;4979967;28;20042;-77
2021/11/10 05:22:46;;;;;;;18.97;11.63;;;;;;;0.56;90.38;101670.13;4979764;28;20053;-78
2021/11/10 05:25:12;;;;;;;19.97;11.53;;;;;;;0.54;90.61;101670.88;4982545;28;20253;-78
2021/11/10 05:27:38;;;;;;;16.97;10.87;;;;;;;0.54;90.30;101676.06;4998158;28;20096;-78
2021/11/10 05:30:05;;;;;;;22.17;12.87;;;;;;;0.53;90.05;101675.19;4985239;28;20034;-78
2021/11/10 05:32:31;;;;;;;19.50;11.80;;;;;;;0.56;89.74;101674.44;4998006;28;20038;-78
2021/11/10 05:34:58;;;;;;;20.50;12.97;;;;;;;0.56;89.84;101671.84;4982079;28;20039;-79
2021/11/10 05:37:26;;;;;;;19.75;12.18;;;;;;;0.58;90.12;101668.50;5004819;28;20049;-79
2021/11/10 05:39:52;;;;;;;21.38;12.70;;;;;;;0.60;89.99;101674.69;5005313;28;20026;-79
2021/11/10 05:42:17;;;;;;;24.33;12.65;;;;;;;0.58;89.48;101672.81;5002465;28;20500;-80
2021/11/10 05:44:42;;;;;;;22.30;12.38;;;;;;;0.57;89.38;101677.09;4996592;28;20026;-78
2021/11/10 05:47:09;;;;;;;20.80;12.37;;;;;;;0.55;89.34;101672.63;5002942;28;20034;-79
2021/11/10 05:49:35;;;;;;;19.30;11.97;;;;;;;0.53;89.32;101676.88;5001998;28;20042;-79
2021/11/10 05:52:00;;;;;;;17.33;11.47;;;;;;;0.53;89.12;101674.28;4999221;28;20045;-78
2021/11/10 05:54:25;;;;;;;16.93;10.97;;;;;;;0.45;89.50;101681.66;4998461;28;20042;-79
2021/11/10 05:56:52;;;;;;;21.63;13.83;;;;;;;0.49;89.43;101672.31;4997444;28;20121;-78
2021/11/10 05:59:17;;;;;;;21.07;12.93;;;;;;;0.50;89.67;101677.63;4996343;28;20077;-77
2021/11/10 06:01:43;;;;;;;28.83;16.70;;;;;;;0.50;89.93;101680.22;4994489;28;20061;-78
2021/11/10 06:04:08;;;;;;;27.13;15.87;;;;;;;0.51;90.31;101675.91;4995358;28;20058;-78
2021/11/10 06:06:34;;;;;;;29.20;18.83;;;;;;;0.48;90.00;101671.44;4979162;28;20517;-78
2021/11/10 06:08:59;;;;;;;24.10;15.87;;;;;;;0.49;89.89;101680.13;4996002;28;20053;-78
2021/11/10 06:11:24;;;;;;;27.48;15.57;;;;;;;0.49;89.51;101677.53;4996222;28;20046;-78
2021/11/10 06:13:50;;;;;;;34.60;21.17;;;;;;;0.43;89.41;101691.97;4995683;28;20042;-78
2021/11/10 06:16:15;;;;;;;31.73;19.63;;;;;;;0.37;89.55;101699.44;4995810;28;20042;-78
2021/11/10 06:18:40;;;;;;;33.57;20.07;;;;;;;0.39;90.04;101690.03;4995552;28;20042;-78
2021/11/10 06:21:06;;;;;;;30.10;19.77;;;;;;;0.41;89.92;101692.69;4978296;28;20037;-77
2021/11/10 06:23:32;;;;;;;21.87;13.77;;;;;;;0.42;89.84;101692.78;4995275;28;20030;-78
2021/11/10 06:25:57;;;;;;;20.70;11.77;;;;;;;0.38;90.15;101689.94;4995946;28;20042;-78
2021/11/10 06:28:23;;;;;;;21.60;14.47;;;;;;;0.37;90.06;101686.47;4978022;28;20507;-78
2021/11/10 06:30:48;;;;;;;22.93;14.47;;;;;;;0.39;89.94;101677.06;4995317;28;20041;-78
2021/11/10 06:33:14;;;;;;;24.53;16.43;;;;;;;0.41;89.88;101682.31;4995022;28;20069;-78
2021/11/10 06:35:39;;;;;;;22.87;14.13;;;;;;;0.42;89.12;101690.19;4995885;28;20049;-78
2021/11/10 06:38:04;;;;;;;18.33;11.77;;;;;;;0.37;89.83;101683.84;4995147;28;20031;-77
2021/11/10 06:40:30;;;;;;;20.97;12.70;;;;;;;0.36;89.68;101688.94;4995438;28;20077;-78
2021/11/10 06:42:56;;;;;;;21.97;13.93;;;;;;;0.40;89.56;101691.81;4994953;28;20046;-78
2021/11/10 06:45:21;;;;;;;23.07;14.37;;;;;;;0.44;89.98;101690.25;4976573;28;20069;-77
2021/11/10 06:47:47;;;;;;;20.47;13.07;;;;;;;0.48;89.46;101689.63;4993748;28;20089;-77
2021/11/10 06:50:14;;;;;;;23.17;14.23;;;;;;;0.56;89.91;101692.63;4976710;28;20045;-77
2021/11/10 06:52:39;;;;;;;27.13;16.33;;;;;;;0.62;89.43;101695.53;4994422;28;20038;-78
2021/11/10 06:55:05;;;;;;;25.23;15.83;;;;;;;0.70;89.74;101696.81;4994398;28;20343;-77
2021/11/10 06:57:31;;;;;;;27.80;16.97;;;;;;;0.70;88.72;101699.44;4985175;28;20038;-77
2021/11/10 06:59:57;;;;;;;24.27;14.30;;;;;;;0.76;89.24;101698.84;4994391;28;20041;-77
2021/11/10 07:02:22;;;;;;;26.85;16.35;;;;;;;0.79;89.12;101699.94;4994373;28;20065;-77
2021/11/10 07:04:47;;;;;;;27.85;16.38;;;;;;;0.88;89.10;101700.38;4983225;28;20058;-77
2021/11/10 07:07:14;;;;;;;25.45;14.93;;;;;;;0.96;89.03;101698.19;4994390;28;20123;-77
2021/11/10 07:09:39;;;;;;;25.70;14.50;;;;;;;1.09;89.53;101707.50;4991269;28;20045;-77
2021/11/10 07:12:05;;;;;;;27.57;15.77;;;;;;;1.21;88.90;101699.44;4993380;28;20034;-77
2021/11/10 07:14:30;;;;;;;25.92;14.30;;;;;;;1.30;88.43;101690.38;4993318;28;20039;-78
2021/11/10 07:16:55;;;;;;;26.38;16.75;;;;;;;1.39;88.93;101696.84;4994108;28;20068;-77
2021/11/10 07:19:21;;;;;;;27.63;15.10;;;;;;;1.47;88.04;101692.94;4993202;28;20038;-77
2021/11/10 07:21:47;;;;;;;25.58;15.55;;;;;;;1.53;88.35;101695.84;4994207;28;20026;-77
2021/11/10 07:24:13;;;;;;;23.23;14.60;;;;;;;1.62;88.41;101685.84;4992227;28;20047;-77
2021/11/10 07:26:38;;;;;;;21.65;13.05;;;;;;;1.73;88.51;101689.00;4989758;28;20452;-77
2021/11/10 07:29:04;;;;;;;18.80;11.93;;;;;;;1.81;88.23;101689.34;4993235;28;20038;-77
2021/11/10 07:31:29;;;;;;;19.60;10.85;;;;;;;1.89;87.88;101686.31;4975727;28;20034;-77
2021/11/10 07:33:56;;;;;;;20.45;12.35;;;;;;;1.92;87.85;101681.25;4993086;28;20096;-77
2021/11/10 07:36:22;;;;;;;19.52;12.88;;;;;;;1.96;87.95;101680.59;4993299;28;20034;-77
2021/11/10 07:38:48;;;;;;;18.75;12.35;;;;;;;2.04;87.86;101696.53;4993521;28;20456;-77
2021/11/10 07:41:16;;;;;;;20.98;13.00;;;;;;;2.16;87.87;101689.31;4975825;28;20128;-78
2021/11/10 07:43:42;;;;;;;21.27;12.23;;;;;;;2.30;87.58;101691.66;4993931;28;20045;-78
2021/11/10 07:46:18;;;;;;;26.25;14.43;;;;;;;2.42;87.65;101700.03;4994359;28;20042;-78
2021/11/10 07:48:47;;;;;;;20.55;13.00;;;;;;;2.50;87.23;101697.78;4976968;28;20042;-78
2021/11/10 07:51:13;;;;;;;19.00;13.02;;;;;;;2.62;87.31;101701.84;4994516;28;20507;-78
2021/11/10 07:53:38;;;;;;;22.10;13.82;;;;;;;2.78;87.54;101697.31;4994048;28;20034;-77
2021/11/10 07:56:04;;;;;;;26.20;15.05;;;;;;;2.90;87.43;101703.03;4994341;28;20038;-77
2021/11/10 07:58:29;;;;;;;24.30;15.55;;;;;;;3.00;87.25;101699.13;4993691;28;20046;-77
2021/11/10 08:00:55;;;;;;;23.58;14.43;;;;;;;3.08;86.79;101701.22;4980554;28;20096;-78
2021/11/10 08:03:21;;;;;;;20.70;14.27;;;;;;;3.19;87.07;101704.28;4974352;28;20034;-78
2021/11/10 08:05:46;;;;;;;25.20;16.33;;;;;;;3.32;87.04;101702.22;4993479;28;20061;-77
2021/11/10 08:08:12;;;;;;;26.33;15.93;;;;;;;3.42;86.67;101700.06;4995209;28;20045;-78
2021/11/10 08:10:37;;;;;;;23.52;15.13;;;;;;;3.51;86.50;101695.22;4995409;28;20045;-78
2021/11/10 08:13:02;;;;;;;23.65;14.95;;;;;;;3.62;86.22;101703.50;4994185;28;20109;-78
2021/11/10 08:15:28;;;;;;;21.45;14.55;;;;;;;3.68;86.36;101689.78;4994154;28;20034;-78
2021/11/10 08:17:54;;;;;;;27.85;16.13;;;;;;;3.73;86.53;101688.25;4995929;28;20038;-78
2021/11/10 08:20:19;;;;;;;31.88;20.42;;;;;;;3.81;86.30;101692.06;4981173;28;20045;-78
2021/11/10 08:22:46;;;;;;;27.38;17.08;;;;;;;3.92;86.34;101690.75;4984557;28;20034;-78
2021/11/10 08:25:15;;;;;;;26.80;16.63;;;;;;;3.99;86.07;101689.28;4996256;28;20041;-78
2021/11/10 08:27:41;;;;;;;25.20;16.08;;;;;;;4.06;85.96;101693.00;4994845;28;20046;-80
2021/11/10 08:30:11;;;;;;;22.67;14.27;;;;;;;4.14;86.05;101699.47;4995027;28;20040;-79
2021/11/10 08:32:36;;;;;;;24.77;15.15;;;;;;;4.21;86.17;101692.72;4996634;28;20030;-78
2021/11/10 08:35:02;;;;;;;21.88;15.05;;;;;;;4.28;85.62;101687.78;4979820;28;20052;-78
2021/11/10 08:37:28;;;;;;;22.05;14.35;;;;;;;4.35;85.76;101679.34;4996749;28;20528;-78
2021/11/10 08:39:54;;;;;;;22.08;13.88;;;;;;;4.44;85.84;101680.53;4997300;28;20038;-78
2021/11/10 08:42:20;;;;;;;20.73;13.85;;;;;;;4.52;85.15;101679.09;4996094;28;20418;-78
2021/11/10 08:44:47;;;;;;;22.40;14.55;;;;;;;4.58;85.33;101677.59;4997403;28;20168;-78
2021/11/10 08:47:14;;;;;;;20.98;14.52;;;;;;;4.67;85.12;101687.50;4980148;28;20066;-78
2021/11/10 08:49:40;;;;;;;20.80;14.60;;;;;;;4.73;85.31;101682.47;5003570;28;20049;-79
2021/11/10 08:52:05;;;;;;;23.23;14.93;;;;;;;4.79;85.02;101666.09;4994945;28;20042;-78
2021/11/10 08:54:31;;;;;;;21.92;14.85;;;;;;;4.86;85.01;101672.47;5000482;28;20429;-79
2021/11/10 08:57:00;;;;;;;24.33;15.02;;;;;;;4.95;84.88;101671.06;4987478;28;20039;-78
2021/11/10 08:59:26;;;;;;;20.83;14.82;;;;;;;5.04;84.72;101666.13;4998463;28;20108;-79
2021/11/10 09:01:53;;;;;;;21.65;16.17;;;;;;;5.15;84.82;101671.75;4993745;28;20030;-78
2021/11/10 09:04:19;;;;;;;24.10;15.48;;;;;;;5.26;84.51;101670.38;4998628;28;20065;-79
2021/11/10 09:06:45;;;;;;;21.02;14.23;;;;;;;5.35;84.27;101664.56;4998630;28;20034;-78
2021/11/10 09:09:11;;;;;;;21.73;14.90;;;;;;;5.47;84.04;101662.34;4981852;28;20096;-79
2021/11/10 09:11:36;;;;;;;22.73;14.68;;;;;;;5.59;84.14;101664.47;4999913;28;20034;-79
2021/11/10 09:14:02;;;;;;;21.60;14.80;;;;;;;5.71;83.46;101661.34;4999633;28;20493;-79
2021/11/10 09:16:27;;;;;;;18.95;13.85;;;;;;;5.79;83.69;101662.50;4998986;28;20039;-78
2021/11/10 09:18:52;;;;;;;50.75;27.98;;;;;;;5.88;84.13;101654.91;4999230;28;20117;-79
2021/11/10 09:21:18;;;;;;;56.08;29.10;;;;;;;6.02;84.65;101665.84;4999018;28;20069;-79
2021/11/10 09:23:43;;;;;;;52.30;29.85;;;;;;;6.13;84.87;101659.22;4999117;28;20034;-79
2021/11/10 09:26:09;;;;;;;55.92;32.97;;;;;;;6.24;84.30;101662.16;4998750;28;20173;-78
2021/11/10 09:28:35;;;;;;;34.88;24.33;;;;;;;6.29;83.59;101657.06;4998966;28;20034;-78
2021/11/10 09:31:01;;;;;;;31.30;19.85;;;;;;;6.31;83.70;101657.97;4981287;28;20501;-78
2021/11/10 09:33:27;;;;;;;24.52;17.08;;;;;;;6.35;83.92;101657.22;4997327;28;20065;-78
2021/11/10 09:35:53;;;;;;;22.77;15.23;;;;;;;6.44;83.50;101653.97;4998675;28;20034;-78
2021/11/10 09:38:19;;;;;;;21.70;15.73;;;;;;;6.48;83.71;101656.72;4998590;28;20103;-77
2021/11/10 09:40:45;;;;;;;21.02;15.23;;;;;;;6.55;84.06;101645.56;4991254;28;20113;-77
2021/11/10 09:43:11;;;;;;;27.08;18.02;;;;;;;6.59;83.42;101655.28;4994509;28;20560;-77
2021/11/10 09:45:37;;;;;;;23.60;18.40;;;;;;;6.63;83.54;101644.88;4977086;28;20069;-76
2021/11/10 09:48:05;;;;;;;29.23;21.08;;;;;;;6.67;82.98;101641.50;4994688;28;20446;-77
2021/11/10 09:50:31;;;;;;;29.42;21.17;;;;;;;6.72;83.09;101643.41;4977241;28;20038;-77
2021/11/10 09:52:59;;;;;;;26.80;20.60;;;;;;;6.85;82.71;101641.13;4994515;28;20057;-77
2021/11/10 09:55:28;;;;;;;26.13;19.65;;;;;;;6.96;82.38;101640.53;4977180;28;20520;-77
2021/11/10 09:57:54;;;;;;;26.50;21.02;;;;;;;7.06;81.54;101640.78;4977212;28;20039;-76
2021/11/10 10:00:24;;;;;;;26.55;20.45;;;;;;;7.15;80.93;101646.25;4977179;28;20089;-77
2021/11/10 10:02:50;;;;;;;24.50;19.35;;;;;;;7.26;80.89;101631.69;4993861;28;20137;-77
2021/11/10 10:05:17;;;;;;;29.25;20.45;;;;;;;7.40;nan;101635.53;4994628;28;20468;-77
2021/11/10 10:07:45;;;;;;;24.80;19.88;;;;;;;7.46;79.89;101640.94;4994132;28;20493;-77
2021/11/10 10:10:10;;;;;;;28.05;20.70;;;;;;;7.43;78.51;101637.34;4976886;28;20037;-77
2021/11/10 10:12:36;;;;;;;24.55;19.40;;;;;;;7.48;79.03;101646.22;4976678;28;20038;-77
2021/11/10 10:15:03;;;;;;;30.65;22.23;;;;;;;7.55;79.59;101647.28;4976685;28;20035;-76
2021/11/10 10:17:36;;;;;;;26.60;21.25;;;;;;;7.56;77.99;101642.03;4994193;28;20034;-76
2021/11/10 10:20:04;;;;;;;27.75;22.98;;;;;;;7.65;78.53;101638.75;4994290;28;20042;-76
2021/11/10 10:22:29;;;;;;;27.50;21.38;;;;;;;7.69;78.07;101630.97;4994025;28;20121;-77
2021/11/10 10:24:57;;;;;;;26.50;20.00;;;;;;;7.81;78.17;101633.00;4993707;28;20556;-77
2021/11/10 10:27:31;;;;;;;25.52;20.05;;;;;;;7.94;77.84;101625.38;4976400;28;20068;-76
2021/11/10 10:30:47;;;;;;;25.85;19.65;;;;;;;8.17;77.59;101629.38;4994162;28;20433;-77
2021/11/10 10:33:18;;;;;;;27.70;21.50;;;;;;;8.18;76.27;101625.94;4960655;28;20270;-77
2021/11/10 10:35:52;;;;;;;22.85;18.83;;;;;;;8.45;77.40;101619.47;4982263;28;20125;-77
2021/11/10 10:38:21;;;;;;;26.40;19.73;;;;;;;8.63;76.02;101616.34;4974852;28;20042;-76
2021/11/10 10:40:49;;;;;;;26.23;18.48;;;;;;;8.73;75.31;101621.78;4991588;28;20034;-76
2021/11/10 10:43:17;;;;;;;25.05;18.92;;;;;;;8.83;74.93;101616.69;4974498;28;20034;-77
2021/11/10 10:45:48;;;;;;;25.35;18.63;;;;;;;8.89;74.34;101617.69;4974053;28;20030;-77
2021/11/10 10:48:17;;;;;;;21.90;16.63;;;;;;;8.97;74.91;101609.94;4991973;28;20042;-77
2021/11/10 10:50:48;;;;;;;23.08;17.65;;;;;;;9.15;73.91;101606.75;4993434;28;20026;-76
2021/11/10 10:53:20;;;;;;;26.25;20.67;;;;;;;9.23;73.72;101613.03;4992401;28;20046;-77
2021/11/10 10:55:48;;;;;;;23.35;17.83;;;;;;;9.35;73.28;101610.59;4993516;28;20180;-76
2021/11/10 10:58:35;;;;;;;20.73;16.45;;;;;;;9.42;71.93;101606.28;4992899;28;20494;-77
2021/11/10 11:01:17;;;;;;;20.13;16.83;;;;;;;9.51;71.61;101598.53;4989897;28;20092;-78
2021/11/10 11:03:51;;;;;;;19.92;16.33;;;;;;;9.64;72.16;101597.88;4990339;28;20397;-76
2021/11/10 11:06:31;;;;;;;23.30;18.27;;;;;;;9.66;70.80;101597.88;4991555;28;20420;-77
2021/11/10 11:09:09;;;;;;;19.92;16.45;;;;;;;9.70;71.31;101604.97;4992893;28;20045;-77
2021/11/10 11:11:38;;;;;;;21.83;17.08;;;;;;;9.66;70.79;101598.75;4991779;28;20031;-77
2021/11/10 11:14:05;;;;;;;22.60;17.65;;;;;;;9.74;71.29;101605.88;4992810;28;20497;-77
2021/11/10 11:16:39;;;;;;;21.02;16.92;;;;;;;9.88;70.82;101599.06;4992801;28;20396;-76